Time;durP1;ratioP1;P1;durP2;ratioP2;P2;SDS_P1;SDS_P2;PMS_P1;PMS_P2;Temp;Humidity;BMP_temperature;BMP_pressure;BME280_temperature;BME280_humidity;BME280_pressure;Samples;Min_cycle;Max_cycle;Signal;HPM_P1;HPM_P2
2021/05/31 00:02:41;;;;;;;14.6;13;;;;;;;10.06;100;99104.19;;;;
2021/05/31 00:12:40;;;;;;;14.8;12.4;;;;;;;9.91;100;99101.7;;;;
2021/05/31 00:22:38;;;;;;;14.1;11.3;;;;;;;9.9;100;99089.31;;;;
2021/05/31 00:32:37;;;;;;;16.1;13.5;;;;;;;9.84;100;99084.3;;;;
2021/05/31 00:42:36;;;;;;;16.6;12.7;;;;;;;9.81;100;99074.11;;;;
2021/05/31 00:52:35;;;;;;;16.6;12.8;;;;;;;9.76;100;99076.86;;;;
2021/05/31 01:02:34;;;;;;;16.1;12.5;;;;;;;9.64;100;99065.73;;;;
2021/05/31 01:12:32;;;;;;;14.7;11.8;;;;;;;9.67;100;99068.64;;;;
2021/05/31 01:22:31;;;;;;;13.1;11.7;;;;;;;9.54;100;99064.76;;;;
2021/05/31 01:32:30;;;;;;;18.7;11.4;;;;;;;9.52;100;99069.64;;;;
2021/05/31 01:42:29;;;;;;;14.7;12.9;;;;;;;9.56;100;99075.24;;;;
2021/05/31 01:52:28;;;;;;;16.6;13.8;;;;;;;9.69;100;99087.18;;;;
2021/05/31 02:02:26;;;;;;;15.7;14.1;;;;;;;9.5;100;99038.73;;;;
2021/05/31 02:12:25;;;;;;;16.1;14.5;;;;;;;9.7;100;99061.88;;;;
2021/05/31 02:22:24;;;;;;;18.8;15.4;;;;;;;9.6;100;99052.05;;;;
2021/05/31 02:32:23;;;;;;;22.8;15.1;;;;;;;9.56;100;99053.72;;;;
2021/05/31 02:42:21;;;;;;;18.1;16.1;;;;;;;9.61;100;99054.44;;;;
2021/05/31 02:52:20;;;;;;;22.8;18;;;;;;;9.43;100;99032.91;;;;
2021/05/31 03:02:19;;;;;;;19.2;13.8;;;;;;;9.6;100;99060.13;;;;
2021/05/31 03:12:18;;;;;;;17.3;15.1;;;;;;;9.67;100;99052.5;;;;
2021/05/31 03:22:16;;;;;;;14.8;13.2;;;;;;;9.78;100;99062.05;;;;
2021/05/31 03:32:15;;;;;;;15.7;14.1;;;;;;;9.75;100;99062.63;;;;
2021/05/31 03:42:14;;;;;;;21.2;15.2;;;;;;;9.85;100;99065.17;;;;
2021/05/31 03:52:12;;;;;;;24.6;18.2;;;;;;;10.1;100;99062.09;;;;
2021/05/31 04:02:11;;;;;;;22.7;16.4;;;;;;;10.2;100;99058.5;;;;
2021/05/31 04:12:10;;;;;;;16.5;14.4;;;;;;;10.3;100;99061.03;;;;
2021/05/31 04:22:09;;;;;;;18.2;15.9;;;;;;;10.38;100;99062.23;;;;
2021/05/31 04:32:08;;;;;;;21.4;17.3;;;;;;;10.3;100;99063.72;;;;
2021/05/31 04:42:07;;;;;;;23.8;17.3;;;;;;;10.32;100;99058.02;;;;
2021/05/31 04:52:06;;;;;;;20.3;18.2;;;;;;;10.21;100;99054.69;;;;
2021/05/31 05:02:04;;;;;;;20.9;16.1;;;;;;;10.81;100;99055.56;;;;
2021/05/31 05:12:03;;;;;;;17.9;14.3;;;;;;;10.93;100;99047.78;;;;
2021/05/31 05:22:02;;;;;;;21.2;17.4;;;;;;;11.18;100;99043;;;;
2021/05/31 05:32:02;;;;;;;16.8;14.4;;;;;;;11.53;100;99050.38;;;;
2021/05/31 05:42:17;;;;;;;19;14.6;;;;;;;11.97;100;99050.53;;;;
2021/05/31 05:51:59;;;;;;;16;13.7;;;;;;;12.44;100;99057.23;;;;
2021/05/31 06:01:58;;;;;;;13.9;12.3;;;;;;;12.58;100;99049.05;;;;
2021/05/31 06:11:58;;;;;;;15.1;12.9;;;;;;;12.9;100;99056.88;;;;
2021/05/31 06:21:57;;;;;;;20.1;11.3;;;;;;;13.13;100;99051.42;;;;
2021/05/31 06:31:56;;;;;;;17.2;11;;;;;;;13.38;100;99042.59;;;;
2021/05/31 06:41:55;;;;;;;13.6;10;;;;;;;13.92;100;99050.18;;;;
2021/05/31 06:51:54;;;;;;;13.8;10.1;;;;;;;13.8;100;99052.73;;;;
2021/05/31 07:01:54;;;;;;;11.6;8.9;;;;;;;14.2;100;99044.44;;;;
2021/05/31 07:11:53;;;;;;;15.4;12.4;;;;;;;13.84;100;99045.57;;;;
2021/05/31 07:21:52;;;;;;;11.3;10;;;;;;;14.59;100;99044.27;;;;
2021/05/31 07:31:52;;;;;;;13;10.4;;;;;;;14.55;100;99038.7;;;;
2021/05/31 07:41:51;;;;;;;10.3;6.7;;;;;;;15.44;100;99023.36;;;;
2021/05/31 07:51:53;;;;;;;12.1;7;;;;;;;15.53;98.70898;99024.13;;;;
2021/05/31 08:01:50;;;;;;;8.2;5;;;;;;;16.66;94.70801;99014.7;;;;
2021/05/31 08:11:50;;;;;;;7.3;5.3;;;;;;;16.55;92.44238;99000.77;;;;
2021/05/31 08:21:50;;;;;;;10.5;7.4;;;;;;;16.08;98.12793;98994.77;;;;
2021/05/31 08:31:49;;;;;;;10.2;8.3;;;;;;;15.58;100;98996.78;;;;
2021/05/31 08:41:51;;;;;;;12.5;7.9;;;;;;;15.62;98.81934;98986.81;;;;
2021/05/31 08:51:49;;;;;;;11.4;9.1;;;;;;;16.1;99.50391;98983.58;;;;
2021/05/31 09:01:49;;;;;;;9.6;5;;;;;;;16.79;88.98047;98980.95;;;;
2021/05/31 09:11:56;;;;;;;11.2;5;;;;;;;16.51;90.77051;98974.52;;;;
2021/05/31 09:21:49;;;;;;;5.9;3;;;;;;;16.29;83.11035;98964.02;;;;
2021/05/31 09:32:00;;;;;;;2.8;1.3;;;;;;;17.36;62.53223;98969.14;;;;
2021/05/31 09:41:48;;;;;;;3.1;1.5;;;;;;;17.4;60.58203;98961.88;;;;
2021/05/31 09:51:47;;;;;;;3.3;1.4;;;;;;;17.38;62.36426;98956.78;;;;
2021/05/31 10:01:47;;;;;;;4.4;2;;;;;;;16.92;61.65625;98974.38;;;;
2021/05/31 10:11:46;;;;;;;5.4;2.2;;;;;;;17.01;63.01367;98964.16;;;;
2021/05/31 10:21:46;;;;;;;4.4;2.4;;;;;;;17.08;65.85156;98948.05;;;;
2021/05/31 10:31:46;;;;;;;6.9;2.3;;;;;;;17.29;67.44531;98950.64;;;;
2021/05/31 10:41:45;;;;;;;6.3;1.6;;;;;;;16.52;64.37793;98948.91;;;;
2021/05/31 10:51:45;;;;;;;3.2;2;;;;;;;16.43;67.89941;98946.27;;;;
2021/05/31 11:01:45;;;;;;;3.2;1.9;;;;;;;16.96;66.9248;98939.91;;;;
2021/05/31 11:11:45;;;;;;;3.7;1.7;;;;;;;16.85;65.28906;98927.87;;;;
2021/05/31 11:21:45;;;;;;;8.1;2.4;;;;;;;17.03;64.30566;98915.63;;;;
2021/05/31 11:31:44;;;;;;;2.7;1.4;;;;;;;16.92;62.9541;98913.69;;;;
2021/05/31 11:41:43;;;;;;;5.6;2.2;;;;;;;16.54;58.39453;98913.98;;;;
2021/05/31 11:51:43;;;;;;;3.1;1.2;;;;;;;17.28;61.94727;98902.77;;;;
2021/05/31 12:01:43;;;;;;;3.3;2;;;;;;;17.5;58.75195;98909.62;;;;
2021/05/31 12:11:42;;;;;;;3.1;1.1;;;;;;;17.29;57.59473;98912.5;;;;
2021/05/31 12:21:42;;;;;;;2.9;1.1;;;;;;;16.98;55.6084;98896.77;;;;
2021/05/31 12:31:42;;;;;;;4.4;1.4;;;;;;;17.1;54.13574;98882.36;;;;
2021/05/31 12:41:41;;;;;;;1.8;0.9;;;;;;;17.92;54.84961;98878.14;;;;
2021/05/31 12:51:41;;;;;;;2.5;1;;;;;;;17.7;52.17676;98875.95;;;;
2021/05/31 13:01:41;;;;;;;2.5;1.2;;;;;;;18.08;44.96289;98864.55;;;;
2021/05/31 13:11:41;;;;;;;3;1.2;;;;;;;18.35;43.73926;98852.78;;;;
2021/05/31 13:21:40;;;;;;;2.8;1.3;;;;;;;17.54;42.80176;98861.47;;;;
2021/05/31 13:31:40;;;;;;;2.4;1.1;;;;;;;17.59;43.4209;98853.88;;;;
2021/05/31 13:41:40;;;;;;;3.9;1.4;;;;;;;18.77;40.66699;98844.86;;;;
2021/05/31 13:51:40;;;;;;;3.3;1.3;;;;;;;17.97;45.20703;98844.38;;;;
2021/05/31 14:01:40;;;;;;;3.1;0.8;;;;;;;16.83;48.6709;98844.96;;;;
2021/05/31 14:11:40;;;;;;;3.9;1.8;;;;;;;16.68;47.0957;98845.64;;;;
2021/05/31 14:21:39;;;;;;;2.7;0.9;;;;;;;18.18;48.5293;98844.14;;;;
2021/05/31 14:31:39;;;;;;;3.9;2.3;;;;;;;17.58;49.34375;98846.84;;;;
2021/05/31 14:41:39;;;;;;;5.3;1.4;;;;;;;18.95;43.89063;98850.73;;;;
2021/05/31 14:51:39;;;;;;;6.7;2.3;;;;;;;19.06;44.55176;98840.8;;;;
2021/05/31 15:01:40;;;;;;;7.1;2.2;;;;;;;19.27;45.12988;98837.73;;;;
2021/05/31 15:11:38;;;;;;;4.7;1.9;;;;;;;19.43;46.78613;98844.78;;;;
2021/05/31 15:21:38;;;;;;;5.3;2.4;;;;;;;20.03;43.04297;98851.41;;;;
2021/05/31 15:31:38;;;;;;;3.4;2.3;;;;;;;21.25;41.91113;98855.75;;;;
2021/05/31 15:41:38;;;;;;;7.1;2.3;;;;;;;19.31;44.64648;98841.34;;;;
2021/05/31 15:51:38;;;;;;;3.8;2.4;;;;;;;20.41;43.74414;98839.58;;;;
2021/05/31 16:01:39;;;;;;;5.2;3.1;;;;;;;22.66;40.09766;98848.28;;;;
2021/05/31 16:11:39;;;;;;;4.9;3.7;;;;;;;23.29;36.84082;98836.9;;;;
2021/05/31 16:21:39;;;;;;;4.1;2.3;;;;;;;23.78;33.2334;98833.59;;;;
2021/05/31 16:31:40;;;;;;;12.4;8.1;;;;;;;23.38;33.82617;98809.05;;;;
2021/05/31 16:41:41;;;;;;;21.1;12.2;;;;;;;25.1;31.45215;98835.25;;;;
2021/05/31 16:51:42;;;;;;;20.7;12.5;;;;;;;24.09;31.21484;98836.83;;;;
2021/05/31 17:01:43;;;;;;;4.1;2.3;;;;;;;22.28;32.82715;98829.52;;;;
2021/05/31 17:21:46;;;;;;;62.5;40.6;;;;;;;17.16;43.41211;98817.54;;;;
2021/05/31 17:41:43;;;;;;;20.1;12.6;;;;;;;18.37;43.65918;98828.64;;;;
2021/05/31 17:51:43;;;;;;;7.6;3.6;;;;;;;20.82;39.17383;98818.72;;;;
2021/05/31 18:01:43;;;;;;;5.5;1.8;;;;;;;19.8;38.85059;98828.7;;;;
2021/05/31 18:11:43;;;;;;;5.1;2;;;;;;;17.42;43.78613;98821.41;;;;
2021/05/31 18:21:42;;;;;;;37.7;28.6;;;;;;;15.92;45.81641;98825.27;;;;
2021/05/31 18:31:42;;;;;;;13.9;8.5;;;;;;;14.86;48.21289;98828.7;;;;
2021/05/31 18:41:41;;;;;;;37;24.6;;;;;;;13.83;51.96191;98846.19;;;;
2021/05/31 18:51:41;;;;;;;9.5;7.3;;;;;;;12.83;54.96094;98858.27;;;;
2021/05/31 19:01:40;;;;;;;7.8;4;;;;;;;11.93;58.71875;98860.47;;;;
2021/05/31 19:11:39;;;;;;;7.3;3;;;;;;;11.23;63.64258;98867.55;;;;
2021/05/31 19:21:38;;;;;;;4.5;2.6;;;;;;;10.59;65.23926;98870.24;;;;
2021/05/31 19:31:37;;;;;;;11.9;4.1;;;;;;;10.21;67.67969;98886.88;;;;
2021/05/31 19:41:35;;;;;;;6.9;3.5;;;;;;;9.65;69.58984;98887.04;;;;
2021/05/31 19:51:34;;;;;;;7.2;3.3;;;;;;;9.36;76.12402;98893.39;;;;
2021/05/31 20:01:33;;;;;;;13.7;9.2;;;;;;;9.1;76.21289;98900.2;;;;
2021/05/31 20:11:32;;;;;;;4.7;3.4;;;;;;;8.7;78.73828;98904.23;;;;
2021/05/31 20:21:30;;;;;;;5.2;2.8;;;;;;;8.46;84.47852;98900.75;;;;
2021/05/31 20:31:29;;;;;;;6.3;3.2;;;;;;;8.2;85.48242;98905.55;;;;
2021/05/31 20:41:27;;;;;;;8;5.1;;;;;;;8.07;90.91113;98914.27;;;;
2021/05/31 20:51:26;;;;;;;17.8;12.4;;;;;;;7.91;90.4082;98916.27;;;;
2021/05/31 21:01:24;;;;;;;21.2;10;;;;;;;7.58;91.23438;98909.85;;;;
2021/05/31 21:11:25;;;;;;;25.3;17.8;;;;;;;7.5;89.62012;98912.31;;;;
2021/05/31 21:21:21;;;;;;;39.2;18.3;;;;;;;7.26;95.1543;98911.41;;;;
2021/05/31 21:31:19;;;;;;;19.9;14.7;;;;;;;7.04;96.60742;98917.18;;;;
2021/05/31 21:41:18;;;;;;;11.2;8.8;;;;;;;6.87;98.0166;98919.41;;;;
2021/05/31 21:51:17;;;;;;;15.8;8.5;;;;;;;6.7;100;98914.36;;;;
2021/05/31 22:01:14;;;;;;;13.1;9.2;;;;;;;6.64;100;98910.11;;;;
2021/05/31 22:11:13;;;;;;;13.4;9.8;;;;;;;6.55;100;98914.44;;;;
2021/05/31 22:21:11;;;;;;;11.2;7.9;;;;;;;6.4;100;98903.77;;;;
2021/05/31 22:31:11;;;;;;;13;8.4;;;;;;;6.17;100;98905.17;;;;
2021/05/31 22:41:17;;;;;;;15.1;8.6;;;;;;;5.96;100;98893.7;;;;
2021/05/31 23:21:01;;;;;;;9.4;6.4;;;;;;;5.53;100;98891.54;;;;
2021/05/31 23:30:59;;;;;;;15.9;8.9;;;;;;;5.33;100;98889.66;;;;
2021/05/31 23:40:57;;;;;;;9.1;7.1;;;;;;;5.24;100;98879.77;;;;
2021/05/31 23:50:55;;;;;;;9.3;6.7;;;;;;;5.11;100;98882.94;;;;
